createdAt,value
2023-03-07T08:34:10.670Z,34.61
2023-03-07T08:34:21.995Z,34.48
2023-03-07T08:34:33.577Z,34.22
2023-03-07T08:34:44.897Z,34.14
2023-03-07T08:34:56.480Z,34.08
2023-03-07T08:35:07.802Z,34.06
2023-03-07T08:35:19.377Z,34.04
2023-03-07T08:35:30.907Z,34.05
2023-03-07T08:35:42.499Z,34.00
2023-03-07T08:35:53.875Z,33.98
2023-03-07T08:36:05.560Z,33.96
2023-03-07T08:36:16.881Z,33.93
2023-03-07T08:36:28.484Z,33.93
2023-03-07T08:36:39.804Z,33.94
2023-03-07T08:36:51.565Z,33.90
2023-03-07T08:37:02.913Z,33.91
2023-03-07T08:37:14.522Z,33.87
2023-03-07T08:37:25.860Z,33.88
2023-03-07T08:37:37.461Z,33.87
2023-03-07T08:37:48.840Z,33.87
2023-03-07T08:38:00.421Z,33.86
2023-03-07T08:38:11.726Z,33.87
2023-03-07T08:38:23.297Z,33.86
2023-03-07T08:38:34.632Z,33.82
2023-03-07T08:38:46.217Z,33.84
2023-03-07T08:38:57.537Z,33.81
2023-03-07T08:39:09.110Z,33.81
2023-03-07T08:39:20.459Z,33.82
2023-03-07T08:39:32.031Z,33.81
2023-03-07T08:39:43.353Z,33.80
2023-03-07T08:39:54.955Z,33.79
2023-03-07T08:40:06.307Z,33.81
2023-03-07T08:40:17.898Z,33.80
2023-03-07T08:40:29.243Z,33.77
2023-03-07T08:40:40.827Z,33.78
2023-03-07T08:40:52.150Z,33.80
2023-03-07T08:41:03.728Z,33.79
2023-03-07T08:41:15.072Z,33.78
2023-03-07T08:41:26.657Z,33.78
2023-03-07T08:41:37.983Z,33.79
2023-03-07T08:41:49.592Z,33.78
2023-03-07T08:42:00.991Z,33.76
2023-03-07T08:42:12.621Z,33.77
2023-03-07T08:42:24.122Z,33.79
2023-03-07T08:42:35.762Z,33.78
2023-03-07T08:42:47.176Z,33.78
2023-03-07T08:42:58.769Z,33.79
2023-03-07T08:43:10.111Z,33.77
2023-03-07T08:43:21.699Z,33.76
2023-03-07T08:43:33.017Z,33.77
2023-03-07T08:43:44.591Z,33.77
2023-03-07T08:43:55.959Z,33.77
2023-03-07T08:44:07.533Z,33.79
2023-03-07T08:44:18.845Z,33.79
2023-03-07T08:44:30.422Z,33.77
2023-03-07T08:44:41.751Z,33.78
2023-03-07T08:44:53.342Z,33.77
2023-03-07T08:45:04.660Z,33.78
2023-03-07T08:45:16.250Z,33.78
2023-03-07T08:45:27.569Z,33.78
2023-03-07T08:45:39.163Z,33.79
2023-03-07T08:45:50.522Z,33.79
2023-03-07T08:46:02.163Z,33.81
2023-03-07T08:46:13.518Z,33.79
2023-03-07T08:46:25.201Z,33.77
2023-03-07T08:46:36.549Z,33.77
2023-03-07T08:46:48.145Z,33.78
2023-03-07T08:46:59.438Z,33.78
2023-03-07T08:47:11.028Z,33.78
2023-03-07T08:47:22.378Z,33.77
2023-03-07T08:47:33.972Z,33.76
2023-03-07T08:47:45.300Z,33.78
2023-03-07T08:47:56.877Z,33.77
2023-03-07T08:48:08.207Z,33.80
2023-03-07T08:48:19.794Z,33.80
2023-03-07T08:48:31.126Z,33.79
2023-03-07T08:48:42.743Z,33.77
2023-03-07T08:48:54.085Z,33.78
2023-03-07T08:49:05.675Z,33.79
2023-03-07T08:49:17.018Z,33.77
2023-03-07T08:49:28.570Z,33.80
2023-03-07T08:49:39.900Z,33.78
2023-03-07T08:49:51.504Z,33.80
2023-03-07T08:50:02.819Z,33.80
2023-03-07T08:50:14.404Z,33.78
2023-03-07T08:50:25.981Z,33.80
2023-03-07T08:50:37.657Z,33.81
2023-03-07T08:50:48.970Z,33.80
2023-03-07T08:51:00.665Z,33.80
2023-03-07T08:51:11.963Z,33.79
2023-03-07T08:51:23.564Z,33.80
2023-03-07T08:51:34.917Z,33.78
2023-03-07T08:51:46.489Z,33.78
2023-03-07T08:51:57.830Z,33.79
2023-03-07T08:52:09.469Z,33.79
2023-03-07T08:52:20.765Z,33.78
2023-03-07T08:52:32.359Z,33.80
2023-03-07T08:52:43.707Z,33.80
2023-03-07T08:52:55.283Z,33.78
2023-03-07T08:53:06.608Z,33.79
2023-03-07T08:53:18.179Z,33.78
2023-03-07T08:53:29.515Z,33.78
2023-03-07T08:53:41.110Z,33.80
2023-03-07T08:53:52.441Z,33.79
2023-03-07T08:54:04.030Z,33.79
2023-03-07T08:54:15.358Z,33.79
2023-03-07T08:54:26.965Z,33.78
2023-03-07T08:54:38.317Z,33.81
2023-03-07T08:54:49.931Z,33.80
2023-03-07T08:55:01.239Z,33.80
2023-03-07T08:55:12.820Z,33.81
2023-03-07T08:55:24.135Z,33.80
2023-03-07T08:55:35.713Z,33.80
2023-03-07T08:55:47.068Z,33.78
2023-03-07T08:55:58.659Z,33.81
2023-03-07T08:56:10.018Z,33.80
2023-03-07T08:56:21.613Z,33.79
2023-03-07T08:56:32.932Z,33.79
2023-03-07T08:56:44.567Z,33.81
2023-03-07T08:56:55.835Z,33.80
2023-03-07T08:57:07.406Z,33.80
2023-03-07T08:57:18.739Z,33.80
2023-03-07T08:57:30.324Z,33.78
2023-03-07T08:57:41.657Z,33.79
2023-03-07T08:57:53.266Z,33.77
2023-03-07T08:58:04.607Z,33.79
2023-03-07T08:58:16.180Z,33.80
2023-03-07T08:58:27.495Z,33.80
2023-03-07T08:58:39.091Z,33.80
2023-03-07T08:58:50.407Z,33.81
2023-03-07T08:59:01.988Z,33.78
2023-03-07T08:59:13.303Z,33.79
2023-03-07T08:59:24.903Z,33.81
2023-03-07T08:59:36.245Z,33.81
2023-03-07T08:59:47.832Z,33.78
2023-03-07T08:59:59.175Z,33.79
2023-03-07T09:00:10.752Z,33.79
2023-03-07T09:00:22.084Z,33.77
2023-03-07T09:00:33.673Z,33.79
2023-03-07T09:00:44.993Z,33.81
2023-03-07T09:00:56.593Z,33.79
2023-03-07T09:01:07.930Z,33.79
2023-03-07T09:01:19.652Z,33.77
2023-03-07T09:01:31.075Z,33.79
2023-03-07T09:01:42.700Z,33.80
2023-03-07T09:01:54.113Z,33.79
2023-03-07T09:02:05.768Z,33.79
2023-03-07T09:02:17.053Z,33.80
2023-03-07T09:02:28.652Z,33.80
2023-03-07T09:02:40.004Z,33.80
2023-03-07T09:02:51.597Z,33.81
2023-03-07T09:03:02.921Z,33.79
2023-03-07T09:03:14.518Z,33.78
2023-03-07T09:03:25.836Z,33.79
2023-03-07T09:03:37.434Z,33.79
2023-03-07T09:03:48.747Z,33.79
2023-03-07T09:04:00.363Z,33.80
2023-03-07T09:04:11.684Z,33.80
2023-03-07T09:04:23.386Z,33.79
2023-03-07T09:04:34.738Z,33.79
2023-03-07T09:04:46.360Z,33.79
2023-03-07T09:04:57.730Z,33.79
2023-03-07T09:05:09.441Z,33.78
2023-03-07T09:05:20.766Z,33.78
2023-03-07T09:05:32.353Z,33.77
2023-03-07T09:05:43.669Z,33.77
2023-03-07T09:05:55.273Z,33.78
2023-03-07T09:06:06.601Z,33.77
2023-03-07T09:06:18.236Z,33.78
2023-03-07T09:06:29.550Z,33.78
2023-03-07T09:06:41.118Z,33.79
2023-03-07T09:06:52.471Z,33.76
2023-03-07T09:07:04.037Z,33.79
2023-03-07T09:07:15.397Z,33.78
2023-03-07T09:07:26.979Z,33.79
2023-03-07T09:07:38.292Z,33.77
2023-03-07T09:07:49.884Z,33.76
2023-03-07T09:08:01.202Z,33.76
2023-03-07T09:08:12.799Z,33.77
2023-03-07T09:08:24.143Z,33.76
2023-03-07T09:08:35.776Z,33.76
2023-03-07T09:08:47.111Z,33.77
2023-03-07T09:08:58.696Z,33.76
2023-03-07T09:09:10.018Z,33.76
2023-03-07T09:09:21.623Z,33.77
2023-03-07T09:09:32.963Z,33.77
2023-03-07T09:09:44.596Z,33.75
2023-03-07T09:09:55.911Z,33.76
2023-03-07T09:10:07.491Z,33.75
2023-03-07T09:10:18.836Z,33.77
2023-03-07T09:10:30.419Z,33.77
2023-03-07T09:10:41.752Z,33.76
2023-03-07T09:10:53.375Z,33.74
2023-03-07T09:11:04.698Z,33.78
2023-03-07T09:11:16.288Z,33.74
2023-03-07T09:11:27.631Z,33.76
2023-03-07T09:11:39.204Z,33.77
2023-03-07T09:11:50.532Z,33.76
2023-03-07T09:12:02.113Z,33.78
2023-03-07T09:12:14.871Z,33.75
2023-03-07T09:12:24.147Z,33.79
2023-03-07T09:12:35.761Z,33.79
2023-03-07T09:12:47.087Z,33.77
2023-03-07T09:12:58.678Z,33.78
2023-03-07T09:13:09.979Z,33.75
2023-03-07T09:13:21.590Z,33.76
2023-03-07T09:13:36.058Z,33.74
2023-03-07T09:13:51.806Z,33.87
2023-03-07T09:13:56.906Z,33.86
2023-03-07T09:14:08.224Z,33.85
2023-03-07T09:14:19.830Z,33.79
2023-03-07T09:14:31.161Z,33.78
2023-03-07T09:14:42.740Z,33.77
2023-03-07T09:14:54.042Z,33.77
2023-03-07T09:15:05.621Z,33.76
2023-03-07T09:15:16.948Z,33.74
2023-03-07T09:15:28.534Z,33.74
2023-03-07T09:15:39.885Z,33.76
2023-03-07T09:15:51.539Z,33.74
2023-03-07T09:16:02.867Z,33.74
2023-03-07T09:16:14.509Z,33.74
2023-03-07T09:16:25.898Z,33.73
2023-03-07T09:16:37.605Z,33.74
2023-03-07T09:16:48.931Z,33.74
2023-03-07T09:17:00.515Z,33.75
2023-03-07T09:17:11.901Z,33.76
2023-03-07T09:17:23.474Z,33.74
2023-03-07T09:17:34.834Z,33.74
2023-03-07T09:17:46.426Z,33.73
2023-03-07T09:17:57.758Z,33.75
2023-03-07T09:18:09.369Z,33.75
2023-03-07T09:18:20.709Z,33.74
2023-03-07T09:18:32.323Z,33.73
2023-03-07T09:18:43.676Z,33.72
2023-03-07T09:18:55.310Z,33.71
2023-03-07T09:19:06.637Z,33.71
2023-03-07T09:19:18.238Z,33.73
2023-03-07T09:19:29.608Z,33.73
2023-03-07T09:19:41.162Z,33.72
2023-03-07T09:19:52.501Z,33.75
2023-03-07T09:20:04.082Z,33.71
2023-03-07T09:20:15.414Z,33.73
2023-03-07T09:20:26.994Z,33.73
2023-03-07T09:20:38.310Z,33.73
2023-03-07T09:20:49.913Z,33.72
2023-03-07T09:21:01.232Z,33.72
2023-03-07T09:21:12.820Z,33.70
2023-03-07T09:21:24.102Z,33.71
2023-03-07T09:21:35.687Z,33.71
2023-03-07T09:21:47.032Z,33.71
2023-03-07T09:21:58.595Z,33.71
2023-03-07T09:22:09.930Z,33.68
2023-03-07T09:22:21.501Z,33.71
2023-03-07T09:22:32.813Z,33.70
2023-03-07T09:22:44.394Z,33.69
2023-03-07T09:22:55.713Z,33.70
2023-03-07T09:23:07.313Z,33.68
2023-03-07T09:23:18.670Z,33.69
2023-03-07T09:23:30.274Z,33.69
2023-03-07T09:23:41.614Z,33.69
2023-03-07T09:23:53.189Z,33.68
2023-03-07T09:24:04.513Z,33.69
2023-03-07T09:24:16.126Z,33.68
2023-03-07T09:24:27.448Z,33.67
2023-03-07T09:24:39.044Z,33.69
2023-03-07T09:24:50.377Z,33.68
2023-03-07T09:25:01.969Z,33.70
2023-03-07T09:25:13.298Z,33.69
2023-03-07T09:25:24.915Z,33.68
2023-03-07T09:25:36.260Z,33.70
2023-03-07T09:25:47.859Z,33.69
2023-03-07T09:25:59.187Z,33.71
2023-03-07T09:26:10.812Z,33.68
2023-03-07T09:26:22.124Z,33.67
2023-03-07T09:26:33.714Z,33.66
2023-03-07T09:26:45.071Z,33.68
2023-03-07T09:26:56.655Z,33.69
2023-03-07T09:27:08.018Z,33.68
2023-03-07T09:27:19.609Z,33.67
2023-03-07T09:27:30.943Z,33.69
2023-03-07T09:27:42.563Z,33.68
2023-03-07T09:27:53.883Z,33.69
2023-03-07T09:28:05.482Z,33.68
2023-03-07T09:28:16.820Z,33.68
2023-03-07T09:28:28.391Z,33.67
2023-03-07T09:28:39.713Z,33.66
2023-03-07T09:28:51.294Z,33.69
2023-03-07T09:29:02.643Z,33.66
2023-03-07T09:29:14.240Z,33.65
2023-03-07T09:29:25.576Z,33.67
2023-03-07T09:29:37.146Z,33.67
2023-03-07T09:29:48.497Z,33.66
2023-03-07T09:30:00.135Z,33.68
2023-03-07T09:30:11.445Z,33.68
2023-03-07T09:30:23.081Z,33.66
2023-03-07T09:30:34.428Z,33.67
2023-03-07T09:30:46.023Z,33.66
2023-03-07T09:30:57.374Z,33.67
2023-03-07T09:31:09.010Z,33.65
2023-03-07T09:31:20.417Z,33.67
2023-03-07T09:31:32.016Z,33.64
2023-03-07T09:31:43.359Z,33.65
2023-03-07T09:31:54.952Z,33.65
2023-03-07T09:32:06.335Z,33.66
2023-03-07T09:32:17.982Z,33.66
2023-03-07T09:32:29.389Z,33.66
2023-03-07T09:32:41.088Z,33.65
2023-03-07T09:32:52.420Z,33.66
2023-03-07T09:33:03.999Z,33.67
2023-03-07T09:33:15.328Z,33.65
2023-03-07T09:33:26.954Z,33.64
2023-03-07T09:33:38.276Z,33.66
2023-03-07T09:33:49.844Z,33.65
2023-03-07T09:34:01.185Z,33.64
2023-03-07T09:34:12.774Z,33.64
2023-03-07T09:34:24.098Z,33.64
2023-03-07T09:34:35.742Z,33.65
2023-03-07T09:34:47.058Z,33.66
2023-03-07T09:34:58.637Z,33.64
2023-03-07T09:35:09.956Z,33.63
2023-03-07T09:35:21.520Z,33.65
2023-03-07T09:35:32.915Z,33.64
2023-03-07T09:35:44.486Z,33.64
2023-03-07T09:35:55.837Z,33.66
2023-03-07T09:36:07.481Z,33.66
2023-03-07T09:36:18.822Z,33.62
2023-03-07T09:36:30.426Z,33.64
2023-03-07T09:36:41.750Z,33.64
2023-03-07T09:36:53.336Z,33.64
2023-03-07T09:37:04.664Z,33.63
2023-03-07T09:37:16.251Z,33.64
2023-03-07T09:37:27.572Z,33.63
2023-03-07T09:37:39.169Z,33.63
2023-03-07T09:37:50.477Z,33.64
2023-03-07T09:38:02.049Z,33.64
2023-03-07T09:38:13.400Z,33.64
2023-03-07T09:38:24.992Z,33.63
2023-03-07T09:38:36.374Z,33.64
2023-03-07T09:38:47.989Z,33.64
2023-03-07T09:38:59.317Z,33.62
2023-03-07T09:39:10.913Z,33.63
2023-03-07T09:39:22.252Z,33.63
2023-03-07T09:39:33.836Z,33.61
2023-03-07T09:39:45.156Z,33.63
2023-03-07T09:39:56.724Z,33.62
2023-03-07T09:40:08.047Z,33.61
2023-03-07T09:40:19.668Z,33.61
2023-03-07T09:40:30.966Z,33.62
2023-03-07T09:40:42.543Z,33.61
2023-03-07T09:40:53.885Z,33.63
2023-03-07T09:41:05.506Z,33.62
2023-03-07T09:41:16.838Z,33.63
2023-03-07T09:41:28.428Z,33.64
2023-03-07T09:41:39.763Z,33.61
2023-03-07T09:41:51.371Z,33.61
2023-03-07T09:42:02.681Z,33.60
2023-03-07T09:42:14.267Z,33.63
2023-03-07T09:42:25.603Z,33.63
2023-03-07T09:42:37.192Z,33.59
2023-03-07T09:42:48.523Z,33.62
2023-03-07T09:43:00.134Z,33.61
2023-03-07T09:43:11.480Z,33.62
2023-03-07T09:43:23.057Z,33.62
2023-03-07T09:43:34.367Z,33.62
2023-03-07T09:43:45.997Z,33.64
2023-03-07T09:43:57.315Z,33.62
2023-03-07T09:44:08.884Z,33.61
2023-03-07T09:44:20.230Z,33.61
2023-03-07T09:44:31.814Z,33.60
2023-03-07T09:44:43.140Z,33.63
2023-03-07T09:44:54.743Z,33.62
2023-03-07T09:45:06.066Z,33.63
2023-03-07T09:45:17.674Z,33.60
2023-03-07T09:45:29.058Z,33.60
2023-03-07T09:45:40.703Z,33.59
2023-03-07T09:45:52.058Z,33.62
2023-03-07T09:46:03.661Z,33.61
2023-03-07T09:46:14.991Z,33.62
2023-03-07T09:46:26.574Z,33.60
2023-03-07T09:46:37.927Z,33.60
2023-03-07T09:46:49.513Z,33.61
2023-03-07T09:47:00.872Z,33.63
2023-03-07T09:47:12.457Z,33.60
2023-03-07T09:47:23.783Z,33.62
2023-03-07T09:47:35.388Z,33.60
2023-03-07T09:47:46.693Z,33.60
2023-03-07T09:47:58.274Z,33.62
2023-03-07T09:48:09.581Z,33.63
2023-03-07T09:48:21.163Z,33.63
2023-03-07T09:48:32.484Z,33.62
2023-03-07T09:48:44.063Z,33.61
2023-03-07T09:48:55.403Z,33.62
2023-03-07T09:49:07.012Z,33.61
2023-03-07T09:49:18.343Z,33.62
2023-03-07T09:49:29.913Z,33.63
2023-03-07T09:49:41.370Z,33.61
2023-03-07T09:49:52.935Z,33.62
2023-03-07T09:50:04.284Z,33.60
2023-03-07T09:50:15.871Z,33.62
2023-03-07T09:50:27.198Z,33.62
2023-03-07T09:50:38.792Z,33.62
2023-03-07T09:50:50.164Z,33.62
2023-03-07T09:51:10.390Z,33.63
2023-03-07T09:51:13.693Z,33.66
2023-03-07T09:51:25.066Z,33.63
2023-03-07T09:51:36.648Z,33.64
2023-03-07T09:51:47.979Z,33.63
2023-03-07T09:51:59.568Z,33.61
2023-03-07T09:52:10.899Z,33.60
2023-03-07T09:52:22.481Z,33.62
2023-03-07T09:52:33.826Z,33.62
2023-03-07T09:52:45.420Z,33.60
2023-03-07T09:52:56.755Z,33.60
2023-03-07T09:53:08.373Z,33.60
2023-03-07T09:53:19.699Z,33.61
2023-03-07T09:53:31.348Z,33.61
2023-03-07T09:53:42.689Z,33.61
2023-03-07T09:53:54.256Z,33.60
2023-03-07T09:54:05.601Z,33.61
2023-03-07T09:54:17.208Z,33.60
2023-03-07T09:54:28.535Z,33.61
2023-03-07T09:54:40.147Z,33.60
2023-03-07T09:54:51.553Z,33.61
2023-03-07T09:55:03.138Z,33.60
2023-03-07T09:55:14.517Z,33.59
2023-03-07T09:55:26.161Z,33.60
2023-03-07T09:55:37.467Z,33.62
2023-03-07T09:55:49.053Z,33.60
2023-03-07T09:56:00.387Z,33.62
2023-03-07T09:56:11.977Z,33.62
2023-03-07T09:56:23.306Z,33.61
2023-03-07T09:56:34.891Z,33.61
2023-03-07T09:56:46.276Z,33.61
2023-03-07T09:56:57.866Z,33.61
2023-03-07T09:57:09.193Z,33.62
2023-03-07T09:57:20.796Z,33.60
2023-03-07T09:57:32.111Z,33.61
2023-03-07T09:57:43.722Z,33.60
2023-03-07T09:57:55.053Z,33.61
2023-03-07T09:58:06.648Z,33.61
2023-03-07T09:58:18.004Z,33.63
2023-03-07T09:58:29.605Z,33.62
2023-03-07T09:58:40.939Z,33.60
2023-03-07T09:58:52.509Z,33.61
2023-03-07T09:59:11.037Z,33.61
2023-03-07T09:59:22.781Z,33.74
2023-03-07T09:59:27.819Z,33.75
2023-03-07T09:59:39.139Z,33.70
2023-03-07T09:59:51.185Z,33.66
2023-03-07T10:00:01.549Z,33.62
2023-03-07T10:00:13.143Z,33.62
2023-03-07T10:00:24.483Z,33.63
2023-03-07T10:00:36.068Z,33.62
2023-03-07T10:00:47.388Z,33.61
2023-03-07T10:00:58.969Z,33.63
2023-03-07T10:01:10.288Z,33.62
2023-03-07T10:01:21.881Z,33.61
2023-03-07T10:01:33.230Z,33.62
2023-03-07T10:01:44.829Z,33.62
2023-03-07T10:01:56.169Z,33.62
2023-03-07T10:02:07.770Z,33.62
2023-03-07T10:02:19.105Z,33.63
2023-03-07T10:02:30.724Z,33.63
2023-03-07T10:02:42.063Z,33.62
2023-03-07T10:02:53.679Z,33.62
2023-03-07T10:03:05.114Z,33.63
2023-03-07T10:03:16.785Z,33.61
2023-03-07T10:03:28.126Z,33.62
2023-03-07T10:03:39.805Z,33.61
2023-03-07T10:03:51.262Z,33.61
2023-03-07T10:04:02.924Z,33.62
2023-03-07T10:04:14.267Z,33.62
2023-03-07T10:04:25.859Z,33.62
2023-03-07T10:04:37.253Z,33.62
2023-03-07T10:04:48.955Z,33.64
2023-03-07T10:05:00.256Z,33.63
2023-03-07T10:05:11.822Z,33.62
2023-03-07T10:05:23.173Z,33.63
2023-03-07T10:05:34.751Z,33.62
2023-03-07T10:05:46.074Z,33.61
2023-03-07T10:05:57.652Z,33.61
2023-03-07T10:06:08.981Z,33.62
2023-03-07T10:06:20.565Z,33.61
2023-03-07T10:06:31.911Z,33.61
2023-03-07T10:06:43.492Z,33.60
2023-03-07T10:06:56.435Z,33.62
2023-03-07T10:07:05.102Z,33.71
2023-03-07T10:07:16.421Z,33.66
2023-03-07T10:07:28.018Z,33.62
2023-03-07T10:07:39.397Z,33.64
2023-03-07T10:07:50.981Z,33.63
2023-03-07T10:08:02.343Z,33.61
2023-03-07T10:08:14.206Z,33.63
2023-03-07T10:08:25.566Z,33.63
2023-03-07T10:08:37.129Z,33.64
2023-03-07T10:08:48.475Z,33.63
2023-03-07T10:09:00.054Z,33.62
2023-03-07T10:09:11.401Z,33.62
2023-03-07T10:09:23.046Z,33.62
2023-03-07T10:09:34.368Z,33.63
2023-03-07T10:09:45.961Z,33.61
2023-03-07T10:09:57.308Z,33.63
2023-03-07T10:10:08.886Z,33.62
2023-03-07T10:10:20.312Z,33.61
2023-03-07T10:10:31.908Z,33.61
2023-03-07T10:10:43.243Z,33.60
2023-03-07T10:10:54.824Z,33.62
2023-03-07T10:11:06.147Z,33.61
2023-03-07T10:11:17.754Z,33.61
2023-03-07T10:11:29.145Z,33.62
2023-03-07T10:11:40.800Z,33.62
2023-03-07T10:11:52.498Z,33.61
2023-03-07T10:12:04.998Z,33.63
2023-03-07T10:12:14.204Z,33.60
2023-03-07T10:12:25.793Z,33.59
2023-03-07T10:12:37.121Z,33.61
2023-03-07T10:12:48.723Z,33.61
2023-03-07T10:13:00.064Z,33.62
2023-03-07T10:13:11.630Z,33.61
2023-03-07T10:13:22.989Z,33.61
2023-03-07T10:13:34.551Z,33.63
2023-03-07T10:13:45.883Z,33.62
2023-03-07T10:13:57.467Z,33.63
2023-03-07T10:14:08.798Z,33.62
2023-03-07T10:14:20.420Z,33.62
2023-03-07T10:14:31.766Z,33.62
2023-03-07T10:14:43.329Z,33.61
2023-03-07T10:14:54.659Z,33.61
2023-03-07T10:15:06.274Z,33.62
2023-03-07T10:15:17.591Z,33.62
2023-03-07T10:15:29.473Z,33.62
2023-03-07T10:15:40.848Z,33.61
2023-03-07T10:15:52.530Z,33.64
2023-03-07T10:16:03.883Z,33.64
2023-03-07T10:16:15.536Z,33.63
2023-03-07T10:16:26.874Z,33.64
2023-03-07T10:16:38.602Z,33.61
2023-03-07T10:16:50.516Z,33.59
2023-03-07T10:17:01.933Z,33.61
2023-03-07T10:17:13.637Z,33.63
2023-03-07T10:17:25.079Z,33.62
2023-03-07T10:17:36.745Z,33.64
2023-03-07T10:17:48.078Z,33.61
2023-03-07T10:17:59.671Z,33.60
2023-03-07T10:18:11.034Z,33.63
2023-03-07T10:18:23.120Z,33.63
2023-03-07T10:18:34.430Z,33.63
2023-03-07T10:18:46.244Z,33.65
2023-03-07T10:18:57.680Z,33.65
2023-03-07T10:19:09.342Z,33.63
2023-03-07T10:19:20.665Z,33.63
2023-03-07T10:19:32.498Z,33.63
2023-03-07T10:19:44.052Z,33.64
2023-03-07T10:19:55.828Z,33.64
2023-03-07T10:20:07.346Z,33.64
2023-03-07T10:20:19.032Z,33.64
2023-03-07T10:20:30.504Z,33.64
2023-03-07T10:20:42.114Z,33.61
2023-03-07T10:20:53.449Z,33.63
2023-03-07T10:21:05.025Z,33.63
2023-03-07T10:21:16.355Z,33.63
2023-03-07T10:21:27.974Z,33.59
2023-03-07T10:21:39.335Z,33.64
2023-03-07T10:21:50.973Z,33.62
2023-03-07T10:22:02.291Z,33.65
2023-03-07T10:22:13.869Z,33.63
2023-03-07T10:22:25.213Z,33.63
2023-03-07T10:22:36.803Z,33.65
2023-03-07T10:22:48.143Z,33.60
2023-03-07T10:22:59.741Z,33.64
2023-03-07T10:23:11.070Z,33.62
2023-03-07T10:23:22.818Z,33.61
2023-03-07T10:23:34.128Z,33.63
2023-03-07T10:23:45.725Z,33.63
2023-03-07T10:23:57.056Z,33.62
2023-03-07T10:24:08.644Z,33.65
2023-03-07T10:24:19.986Z,33.64
2023-03-07T10:24:31.560Z,33.62
2023-03-07T10:24:42.893Z,33.62
2023-03-07T10:24:54.481Z,33.64
2023-03-07T10:25:05.796Z,33.63
2023-03-07T10:25:17.394Z,33.64
2023-03-07T10:25:28.708Z,33.63
2023-03-07T10:25:40.284Z,33.64
2023-03-07T10:25:51.633Z,33.64
2023-03-07T10:26:03.221Z,33.64
2023-03-07T10:26:14.562Z,33.66
2023-03-07T10:26:26.139Z,33.63
2023-03-07T10:26:37.449Z,33.65
2023-03-07T10:26:49.038Z,33.63
2023-03-07T10:27:00.429Z,33.63
2023-03-07T10:27:12.022Z,33.64
2023-03-07T10:27:23.371Z,33.64
2023-03-07T10:27:34.956Z,33.64
2023-03-07T10:27:46.283Z,33.64
2023-03-07T10:27:57.855Z,33.64
2023-03-07T10:28:09.177Z,33.65
2023-03-07T10:28:20.786Z,33.62
2023-03-07T10:28:32.121Z,33.64
2023-03-07T10:28:43.755Z,33.64
2023-03-07T10:28:55.092Z,33.64
2023-03-07T10:29:06.710Z,33.62
2023-03-07T10:29:18.082Z,33.64
2023-03-07T10:29:29.667Z,33.63
2023-03-07T10:29:41.088Z,33.66
2023-03-07T10:29:52.676Z,33.62
2023-03-07T10:30:03.996Z,33.65
2023-03-07T10:30:15.570Z,33.62
2023-03-07T10:30:26.904Z,33.65
2023-03-07T10:30:38.490Z,33.64
2023-03-07T10:30:49.908Z,33.65
2023-03-07T10:31:01.461Z,33.64
2023-03-07T10:31:12.828Z,33.63
2023-03-07T10:31:24.467Z,33.64
2023-03-07T10:31:35.835Z,33.65
2023-03-07T10:31:47.465Z,33.67
2023-03-07T10:31:58.890Z,33.65
2023-03-07T10:32:10.623Z,33.65
2023-03-07T10:32:22.050Z,33.64
2023-03-07T10:32:33.794Z,33.65
2023-03-07T10:32:45.238Z,33.64
2023-03-07T10:32:56.801Z,33.63
2023-03-07T10:33:08.119Z,33.66
2023-03-07T10:33:19.747Z,33.63
2023-03-07T10:33:31.065Z,33.65
2023-03-07T10:33:42.645Z,33.63
2023-03-07T10:33:54.030Z,33.64
2023-03-07T10:34:05.642Z,33.65
2023-03-07T10:34:26.432Z,33.62
2023-03-07T10:34:31.365Z,33.77
2023-03-07T10:34:39.410Z,33.75
2023-03-07T10:34:50.747Z,33.70
2023-03-07T10:35:02.395Z,33.66
2023-03-07T10:35:13.706Z,33.67
2023-03-07T10:35:25.282Z,33.65
2023-03-07T10:35:36.620Z,33.65
2023-03-07T10:35:48.229Z,33.67
2023-03-07T10:35:59.559Z,33.66
2023-03-07T10:36:11.162Z,33.66
2023-03-07T10:36:22.478Z,33.66
2023-03-07T10:36:34.084Z,33.65
2023-03-07T10:36:45.388Z,33.65
2023-03-07T10:37:08.133Z,33.66
2023-03-07T10:37:09.577Z,33.71
2023-03-07T10:37:21.189Z,33.64
2023-03-07T10:37:32.504Z,33.64
2023-03-07T10:37:44.123Z,33.65
2023-03-07T10:37:55.695Z,33.66
2023-03-07T10:38:07.280Z,33.64
2023-03-07T10:38:18.622Z,33.65
2023-03-07T10:38:30.208Z,33.64
2023-03-07T10:38:41.546Z,33.64
2023-03-07T10:38:53.147Z,33.64
2023-03-07T10:39:04.510Z,33.66
2023-03-07T10:39:16.119Z,33.64
2023-03-07T10:39:27.468Z,33.65
2023-03-07T10:39:39.048Z,33.65
2023-03-07T10:39:50.379Z,33.65
2023-03-07T10:40:04.519Z,33.66
2023-03-07T10:40:11.970Z,33.67
2023-03-07T10:40:23.295Z,33.66
2023-03-07T10:40:34.872Z,33.65
2023-03-07T10:40:46.196Z,33.64
2023-03-07T10:40:57.797Z,33.65
2023-03-07T10:41:09.124Z,33.65
2023-03-07T10:41:20.701Z,33.65
2023-03-07T10:41:32.033Z,33.64
2023-03-07T10:41:43.660Z,33.64
2023-03-07T10:41:55.226Z,33.64
2023-03-07T10:42:06.825Z,33.66
2023-03-07T10:42:18.167Z,33.65
2023-03-07T10:42:29.735Z,33.66
2023-03-07T10:42:41.114Z,33.66
2023-03-07T10:42:52.686Z,33.63
2023-03-07T10:43:04.935Z,33.64
2023-03-07T10:43:14.147Z,33.66
2023-03-07T10:43:25.757Z,33.65
2023-03-07T10:43:37.109Z,33.66
2023-03-07T10:43:48.710Z,33.65
2023-03-07T10:44:00.098Z,33.66
2023-03-07T10:44:11.778Z,33.66
2023-03-07T10:44:23.266Z,33.66
2023-03-07T10:44:34.941Z,33.64
2023-03-07T10:44:46.488Z,33.65
2023-03-07T10:44:58.125Z,33.66
2023-03-07T10:45:11.148Z,33.66
2023-03-07T10:45:21.479Z,33.74
2023-03-07T10:45:33.099Z,33.69
2023-03-07T10:45:44.465Z,33.67
2023-03-07T10:45:56.099Z,33.68
2023-03-07T10:46:22.310Z,33.65
2023-03-07T10:46:25.895Z,33.80
2023-03-07T10:46:31.401Z,33.79
2023-03-07T10:46:53.768Z,33.73
2023-03-07T10:46:56.552Z,33.83
2023-03-07T10:47:05.905Z,33.75
2023-03-07T10:47:17.450Z,33.71
2023-03-07T10:47:28.933Z,33.69
2023-03-07T10:47:40.501Z,33.68
2023-03-07T10:47:51.828Z,33.68
2023-03-07T10:48:03.411Z,33.66
2023-03-07T10:48:14.731Z,33.69
2023-03-07T10:48:26.323Z,33.68
2023-03-07T10:48:37.633Z,33.67
2023-03-07T10:48:49.223Z,33.68
2023-03-07T10:49:00.576Z,33.68
2023-03-07T10:49:12.246Z,33.69
2023-03-07T10:49:23.559Z,33.69
2023-03-07T10:49:35.243Z,33.68
2023-03-07T10:49:46.701Z,33.65
2023-03-07T10:49:58.465Z,33.68
2023-03-07T10:50:10.033Z,33.67
2023-03-07T10:50:21.580Z,33.69
2023-03-07T10:50:32.893Z,33.70
2023-03-07T10:50:44.485Z,33.67
2023-03-07T10:50:55.806Z,33.68
2023-03-07T10:51:07.424Z,33.67
2023-03-07T10:51:18.771Z,33.69
2023-03-07T10:51:30.357Z,33.67
2023-03-07T10:51:41.683Z,33.69
2023-03-07T10:51:53.273Z,33.69
2023-03-07T10:52:04.658Z,33.68
2023-03-07T10:52:16.234Z,33.67
2023-03-07T10:52:27.574Z,33.67
2023-03-07T10:52:39.166Z,33.65
2023-03-07T10:52:50.478Z,33.64
2023-03-07T10:53:02.085Z,33.67
2023-03-07T10:53:13.428Z,33.68
2023-03-07T10:53:25.005Z,33.66
2023-03-07T10:53:36.325Z,33.64
2023-03-07T10:53:47.908Z,33.68
2023-03-07T10:53:59.246Z,33.66
2023-03-07T10:54:10.830Z,33.65
2023-03-07T10:54:22.180Z,33.65
2023-03-07T10:54:33.783Z,33.65
2023-03-07T10:54:45.111Z,33.68
2023-03-07T10:54:56.665Z,33.68
2023-03-07T10:55:07.983Z,33.65
2023-03-07T10:55:19.565Z,33.67
2023-03-07T10:55:30.936Z,33.67
2023-03-07T10:55:42.510Z,33.66
2023-03-07T10:55:53.828Z,33.68
2023-03-07T10:56:05.412Z,33.67
2023-03-07T10:56:16.731Z,33.65
2023-03-07T10:56:28.330Z,33.65
2023-03-07T10:56:39.654Z,33.65
2023-03-07T10:56:51.267Z,33.65
2023-03-07T10:57:02.589Z,33.66
2023-03-07T10:57:14.174Z,33.64
2023-03-07T10:57:25.506Z,33.67
2023-03-07T10:57:37.098Z,33.66
2023-03-07T10:57:48.433Z,33.65
2023-03-07T10:58:00.011Z,33.66
2023-03-07T10:58:11.342Z,33.66
2023-03-07T10:58:22.942Z,33.66
2023-03-07T10:58:34.256Z,33.66
2023-03-07T10:58:45.846Z,33.64
2023-03-07T10:58:57.165Z,33.64
2023-03-07T10:59:08.739Z,33.64
2023-03-07T10:59:20.048Z,33.66
2023-03-07T10:59:31.614Z,33.67
2023-03-07T10:59:42.928Z,33.68
2023-03-07T10:59:54.526Z,33.65
2023-03-07T11:00:05.847Z,33.64
2023-03-07T11:00:17.510Z,33.66
2023-03-07T11:00:28.864Z,33.63
2023-03-07T11:00:40.441Z,33.67
2023-03-07T11:00:51.790Z,33.65
2023-03-07T11:01:03.417Z,33.65
2023-03-07T11:01:14.785Z,33.67
2023-03-07T11:01:26.454Z,33.67
2023-03-07T11:01:37.797Z,33.65
2023-03-07T11:01:49.373Z,33.65